VRMM/MLE METAR and TAF weather

Enter ICAO airport designator
Station Type Date Time Source
VRMM METAR 2019/04/25 15:00 UTC NOAA

VRMM 251500Z 31005KT 9999 FEW018 BKN280 30/26 Q1010 NOSIG


Station Type Date Time Source
VRMM Decoded METAR 2019/04/25 15:00 UTC NOAA

Male, Maldives (VRMM) 04-12N 073-32E 2M
Apr 25, 2019 - 11:00 AM EDT / 2019.04.25 1500 UTC
Wind: from the NW (310 degrees) at 6 MPH (5 KT):0
Visibility: greater than 7 mile(s):0
Sky conditions: mostly cloudy
Temperature: 86 F (30 C)
Heat index: 99.3 F (37.4 C):1
Dew Point: 78 F (26 C)
Relative Humidity: 79%
Pressure (altimeter): 29.83 in. Hg (1010 hPa)
ob: VRMM 251500Z 31005KT 9999 FEW018 BKN280 30/26 Q1010 NOSIG
cycle: 15

Station Type Date Time Source
VRMM TAF 2019/04/25 12:09 UTC NOAA

TAF VRMM 251100Z 2512/2618 32010KT 9999 FEW018
TEMPO 2512/2521 FEW019CB

Example: see airport list